Sanford, NC

7:15 PM EDT on April 19, 2015 (GMT -0400)
Reserve at Carthage Colonies | | Change Station
CLOSE
Current Station
Personal Weather Station
Location: Sanford, NC
Elevation: 404 ft
Nearby Weather Stations
Active Advisory: Tornado Watch

Elev 404 ft 35.45 °N, 79.20 °W | Updated 11 minutes ago

Overcast
Overcast
68.0 °F
Feels Like 68.0 °F
N
4.2
Wind Variable Wind from East

Today
High -- | Low -- °F
--% Chance of Precip.
Yesterday
High -- | Low -- °F
Precip. -- in
6:39 AM 7:52 PM
New Moon, 2% visible
Pressure 29.83 in
Visibility 10.0 miles
Clouds Overcast 1100 ft
Dew Point 65 °F
Humidity 90%
Rainfall 0.46 in
Snow Depth Not available.
UV 0 out of 12
Pollen 2.10 out of 12
Air Quality Not available.
Flu Activity Sporadic
METAR KTTA 192255Z AUTO 14005KT 10SM OVC011 20/20 A2983 RMK AO2 P0001 T02000200

More Conditions Fewer Conditions

Pressure 29.83 in
Visibility 10.0 miles
Clouds Overcast 1100 ft
Dew Point 65 °F
Humidity 90%
Rainfall 0.46 in
Snow Depth Not available.
UV 0 out of 12
Pollen 2.10 out of 12
Air Quality Not available.
Flu Activity Sporadic
METAR KTTA 192255Z AUTO 14005KT 10SM OVC011 20/20 A2983 RMK AO2 P0001 T02000200

More Conditions Fewer Conditions

10-Day Weather Forecast

Almanac

Astronomy

Apr. 19, 2015 Rise Set
Actual Time
Civil Twilight
Nautical Twilight
Astronomical Twilight
Moon
Length of Visible Light
Length of Day
Tomorrow will be .
, % of the Moon is Illuminated

Today's Extremes

State Highs State Lows

Community

WunderPhotos

Upload Photos

1,815,026 photos uploaded!

WunderBlogs® & News

Nearby

Air Quality

  Air Quality AQ Index Pollutant
Not available.

Snow Depth

Station Depth Elevation

Earthquake Activity

City Distance Mag. Time & Date
Minimum magnitude displayed is 2.5.

Coastal Water Temperatures

Place Temperature

Stations

Nearby Weather Stations

Station Location Temp. Windchill Dew Point Humidity Wind Precip. Elev Updated Type
                   
Tornado Watch
Statement as of 7:03 PM EDT on April 19, 2015

Tornado Watch 82 remains in effect until 1100 PM EDT for the
following locations


NC
. North Carolina counties included are

Anson Chatham Cumberland
Davidson Harnett Hoke
Lee Montgomery Moore
Randolph Richmond Robeson
Scotland Stanly